Pagrindinis puslapis
METAR-TAF:

METAR-TAF

Oro uostai :

Kupangas, Indonezija

platuma: 10-10-17S, ilguma: 123-40-16E, Aukštis: 102 m

Dabartinis oras

Ataskaita buvo paskelbta 28 minutes, ne 01:00 UTC
Vėjas 13 kt iš Rytų/Pietryčių
Temperatūra 28°C
Drėgmė 66%
Slėgis 1014 hPa
Matomumas: 9000 m
Mažai debesys ne aukštis 1800 ft

METAR: WATT 050100Z 11013KT 9000 FEW018 28/21 Q1014 NOSIG

Laikas: 08:28 (01:28 UTC)

Prognozė

Ataskaita buvo paskelbta 2 valandos ir 28 minutes, ne 23:00 UTC
Prognozė galioja nuo 05 metu 00 UTC su 05 metu 24 UTC
Vėjas 15 kt iš Rytų/Pietryčių
Matomumas 10 km arba daugiau
Mažai debesys ne aukštis 1800 ft
Tapsmas
nuo 05 metu 03 UTC su 05 metu 05 UTC
Vėjas 22 kt iš Rytų/Pietryčių

TAF: WATT 042300Z 0500/0524 12015KT 9999 FEW018 BECMG 0503/0505 11022KT

Orai ataskaitas ir orų prognozės (METAR, TAF).

turimą stotys yra geltonos ir raudonos taškus žemėlapyje.

Perkelti pele per norėdami pamatyti stoties vardą.

Tada spustelėkite, norėdami matyti oro stebėjimo ir prognozės.

Norėdami pakeisti žemėlapį: spustelėkite ant žalios mygtukų su juodo kryžiaus žemyn,; žalią mygtuką su brūkšneliu, jei norite nutolinti; arba žalių rodyklių gretimoms žemėlapius.


METAR-TAF: